createdAt,value
2023-01-12T00:03:56.897Z,-57
2023-01-12T00:11:29.214Z,-57
2023-01-12T00:19:01.537Z,-57
2023-01-12T00:26:33.852Z,-57
2023-01-12T00:34:06.172Z,-58
2023-01-12T00:36:08.434Z,-57
2023-01-12T00:36:55.759Z,-57
2023-01-12T00:37:43.084Z,-58
2023-01-12T00:38:30.384Z,-57
2023-01-12T00:39:17.674Z,-57
2023-01-12T00:40:04.995Z,-57
2023-01-12T00:40:52.307Z,-57
2023-01-12T00:41:39.611Z,-57
2023-01-12T00:42:26.911Z,-57
2023-01-12T00:43:14.215Z,-57
2023-01-12T00:44:01.543Z,-60
2023-01-12T00:51:33.863Z,-57
2023-01-12T00:59:06.168Z,-58
2023-01-12T01:06:38.473Z,-57
2023-01-12T01:14:10.811Z,-57
2023-01-12T01:21:43.108Z,-57
2023-01-12T01:29:15.421Z,-57
2023-01-12T01:36:47.717Z,-57
2023-01-12T01:44:20.018Z,-57
2023-01-12T01:51:52.308Z,-57
2023-01-12T01:59:24.636Z,-57
2023-01-12T02:06:56.945Z,-57
2023-01-12T02:14:29.283Z,-56
2023-01-12T02:22:01.588Z,-57
2023-01-12T02:29:33.919Z,-56
2023-01-12T02:37:06.232Z,-57
2023-01-12T02:44:38.560Z,-56
2023-01-12T02:52:10.885Z,-56
2023-01-12T02:59:43.206Z,-57
2023-01-12T03:07:15.528Z,-56
2023-01-12T03:14:47.840Z,-57
2023-01-12T03:22:20.150Z,-57
2023-01-12T03:29:52.472Z,-56
2023-01-12T03:37:24.789Z,-57
2023-01-12T03:44:57.165Z,-56
2023-01-12T03:52:29.469Z,-56
2023-01-12T04:00:01.780Z,-57
2023-01-12T04:07:34.091Z,-56
2023-01-12T04:15:06.421Z,-57
2023-01-12T04:22:38.732Z,-56
2023-01-12T04:30:11.033Z,-57
2023-01-12T04:37:43.338Z,-57
2023-01-12T04:45:15.656Z,-56
2023-01-12T04:52:47.990Z,-57
2023-01-12T05:00:20.305Z,-57
2023-01-12T05:07:52.635Z,-56
2023-01-12T05:15:24.959Z,-57
2023-01-12T05:17:57.241Z,-57
2023-01-12T05:18:44.556Z,-56
2023-01-12T05:19:31.883Z,-56
2023-01-12T05:20:19.206Z,-56
2023-01-12T05:21:06.536Z,-56
2023-01-12T05:21:53.860Z,-56
2023-01-12T05:22:41.156Z,-56
2023-01-12T05:23:28.457Z,-56
2023-01-12T05:24:15.773Z,-56
2023-01-12T05:25:03.114Z,-56
2023-01-12T05:25:50.459Z,-56
2023-01-12T05:26:37.775Z,-56
2023-01-12T05:27:25.087Z,-57
2023-01-12T05:28:12.397Z,-56
2023-01-12T05:28:59.714Z,-56
2023-01-12T05:29:47.037Z,-57
2023-01-12T05:30:34.408Z,-57
2023-01-12T05:31:21.760Z,-57
2023-01-12T05:32:09.092Z,-57
2023-01-12T05:32:56.419Z,-57
2023-01-12T05:33:43.734Z,-57
2023-01-12T05:34:31.054Z,-58
2023-01-12T05:35:18.344Z,-58
2023-01-12T05:36:05.674Z,-58
2023-01-12T05:36:52.997Z,-57
2023-01-12T05:37:40.321Z,-58
2023-01-12T05:38:27.632Z,-59
2023-01-12T05:39:14.959Z,-57
2023-01-12T05:40:02.292Z,-57
2023-01-12T05:40:49.604Z,-58
2023-01-12T05:41:36.922Z,-57
2023-01-12T05:42:24.252Z,-57
2023-01-12T05:43:11.600Z,-57
2023-01-12T05:43:58.904Z,-57
2023-01-12T05:44:46.304Z,-57
2023-01-12T05:45:38.705Z,-56
2023-01-12T05:46:26.106Z,-57
2023-01-12T05:47:13.451Z,-58
2023-01-12T05:48:00.758Z,-59
2023-01-12T05:48:48.082Z,-57
2023-01-12T05:49:35.468Z,-58
2023-01-12T05:50:22.795Z,-58
2023-01-12T05:51:10.163Z,-56
2023-01-12T05:51:57.534Z,-58
2023-01-12T05:52:44.862Z,-59
2023-01-12T05:53:32.217Z,-58
2023-01-12T05:54:19.648Z,-57
2023-01-12T05:55:06.960Z,-58
2023-01-12T05:55:54.256Z,-57
2023-01-12T05:56:41.701Z,-57
2023-01-12T05:57:29.012Z,-57
2023-01-12T05:58:16.303Z,-58
2023-01-12T05:59:03.761Z,-58
2023-01-12T05:59:51.088Z,-57
2023-01-12T06:00:38.384Z,-57
2023-01-12T06:01:25.872Z,-57
2023-01-12T06:02:13.294Z,-57
2023-01-12T06:03:00.635Z,-58
2023-01-12T06:03:48.057Z,-58
2023-01-12T06:04:35.494Z,-58
2023-01-12T06:05:22.843Z,-58
2023-01-12T06:06:10.276Z,-58
2023-01-12T06:06:57.590Z,-58
2023-01-12T06:07:44.904Z,-58
2023-01-12T06:08:32.348Z,-58
2023-01-12T06:09:19.683Z,-58
2023-01-12T06:10:07.000Z,-60
2023-01-12T06:10:54.426Z,-59
2023-01-12T06:11:41.702Z,-57
2023-01-12T06:12:29.008Z,-57
2023-01-12T06:13:16.450Z,-57
2023-01-12T06:14:03.765Z,-56
2023-01-12T06:14:51.076Z,-59
2023-01-12T06:15:38.564Z,-57
2023-01-12T06:16:25.948Z,-57
2023-01-12T06:17:13.264Z,-57
2023-01-12T06:18:00.698Z,-57
2023-01-12T06:18:48.006Z,-56
2023-01-12T06:19:35.334Z,-57
2023-01-12T06:20:22.753Z,-56
2023-01-12T06:21:10.075Z,-57
2023-01-12T06:21:57.428Z,-56
2023-01-12T06:22:44.869Z,-58
2023-01-12T06:23:35.379Z,-57
2023-01-12T06:24:23.716Z,-58
2023-01-12T06:25:11.043Z,-55
2023-01-12T06:25:58.431Z,-59
2023-01-12T06:26:45.806Z,-61
2023-01-12T06:27:33.154Z,-60
2023-01-12T06:28:20.464Z,-58
2023-01-12T06:29:07.799Z,-63
2023-01-12T06:29:55.143Z,-59
2023-01-12T06:30:42.461Z,-61
2023-01-12T06:31:29.842Z,-61
2023-01-12T06:32:17.232Z,-58
2023-01-12T06:33:04.833Z,-60
2023-01-12T06:33:52.166Z,-59
2023-01-12T06:34:39.527Z,-61
2023-01-12T06:35:26.863Z,-62
2023-01-12T06:36:14.192Z,-60
2023-01-12T06:37:01.555Z,-61
2023-01-12T06:37:48.892Z,-63
2023-01-12T06:38:36.185Z,-61
2023-01-12T06:39:23.485Z,-61
2023-01-12T06:40:10.834Z,-61
2023-01-12T06:40:58.200Z,-63
2023-01-12T06:41:45.525Z,-60
2023-01-12T06:42:32.872Z,-61
2023-01-12T06:43:20.196Z,-60
2023-01-12T06:44:07.523Z,-58
2023-01-12T06:44:54.867Z,-59
2023-01-12T06:45:42.192Z,-61
2023-01-12T06:46:29.610Z,-61
2023-01-12T06:47:16.954Z,-60
2023-01-12T06:48:04.295Z,-60
2023-01-12T06:48:51.622Z,-60
2023-01-12T06:49:38.960Z,-56
2023-01-12T06:50:26.308Z,-59
2023-01-12T06:51:13.625Z,-58
2023-01-12T06:52:00.963Z,-58
2023-01-12T06:52:48.303Z,-58
2023-01-12T06:53:35.667Z,-60
2023-01-12T06:54:22.992Z,-59
2023-01-12T06:55:10.293Z,-58
2023-01-12T06:55:57.652Z,-58
2023-01-12T06:56:44.968Z,-58
2023-01-12T06:57:32.290Z,-60
2023-01-12T06:58:19.675Z,-59
2023-01-12T06:59:06.999Z,-59
2023-01-12T06:59:54.329Z,-60
2023-01-12T07:00:41.659Z,-62
2023-01-12T07:01:29.126Z,-63
2023-01-12T07:02:16.597Z,-59
2023-01-12T07:03:03.962Z,-60
2023-01-12T07:03:51.285Z,-59
2023-01-12T07:04:38.727Z,-59
2023-01-12T07:05:26.142Z,-59
2023-01-12T07:06:13.455Z,-62
2023-01-12T07:07:00.770Z,-63
2023-01-12T07:07:48.095Z,-59
2023-01-12T07:08:35.403Z,-60
2023-01-12T07:09:22.729Z,-61
2023-01-12T07:10:10.199Z,-58
2023-01-12T07:10:57.505Z,-61
2023-01-12T07:11:44.816Z,-62
2023-01-12T07:12:32.133Z,-60
2023-01-12T07:13:19.444Z,-62
2023-01-12T07:14:09.058Z,-59
2023-01-12T07:14:56.552Z,-60
2023-01-12T07:15:44.078Z,-60
2023-01-12T07:16:31.432Z,-60
2023-01-12T07:17:18.764Z,-60
2023-01-12T07:18:06.156Z,-58
2023-01-12T07:18:53.515Z,-59
2023-01-12T07:19:41.613Z,-56
2023-01-12T07:20:29.097Z,-57
2023-01-12T07:21:16.496Z,-57
2023-01-12T07:22:03.829Z,-58
2023-01-12T07:22:51.159Z,-58
2023-01-12T07:23:38.592Z,-59
2023-01-12T07:24:25.947Z,-58
2023-01-12T07:25:13.274Z,-58
2023-01-12T07:26:00.719Z,-58
2023-01-12T07:26:48.072Z,-59
2023-01-12T07:27:35.391Z,-59
2023-01-12T07:28:22.863Z,-59
2023-01-12T07:29:10.184Z,-59
2023-01-12T07:29:57.550Z,-58
2023-01-12T07:30:44.957Z,-58
2023-01-12T07:31:32.302Z,-58
2023-01-12T07:32:19.646Z,-58
2023-01-12T07:33:07.036Z,-60
2023-01-12T07:33:54.360Z,-60
2023-01-12T07:34:41.665Z,-61
2023-01-12T07:35:29.143Z,-60
2023-01-12T07:36:16.496Z,-60
2023-01-12T07:37:03.821Z,-61
2023-01-12T07:37:51.273Z,-62
2023-01-12T07:38:38.632Z,-58
2023-01-12T07:39:25.967Z,-61
2023-01-12T07:40:13.373Z,-63
2023-01-12T07:41:00.724Z,-60
2023-01-12T07:41:48.044Z,-59
2023-01-12T07:42:35.455Z,-59
2023-01-12T07:43:22.784Z,-60
2023-01-12T07:44:10.146Z,-59
2023-01-12T07:44:57.511Z,-61
2023-01-12T07:45:44.847Z,-58
2023-01-12T07:46:32.237Z,-59
2023-01-12T07:47:20.017Z,-58
2023-01-12T07:48:07.631Z,-60
2023-01-12T07:48:54.962Z,-59
2023-01-12T07:49:42.279Z,-61
2023-01-12T07:50:29.793Z,-58
2023-01-12T07:51:17.151Z,-59
2023-01-12T07:52:04.466Z,-59
2023-01-12T07:52:51.898Z,-58
2023-01-12T07:53:39.224Z,-59
2023-01-12T07:54:26.547Z,-60
2023-01-12T07:55:13.972Z,-59
2023-01-12T07:56:01.267Z,-60
2023-01-12T07:56:48.602Z,-59
2023-01-12T07:57:36.011Z,-61
2023-01-12T07:58:23.328Z,-62
2023-01-12T07:59:10.645Z,-62
2023-01-12T07:59:58.029Z,-62
2023-01-12T08:00:45.357Z,-61
2023-01-12T08:01:32.825Z,-61
2023-01-12T08:02:20.318Z,-62
2023-01-12T08:03:07.812Z,-62
2023-01-12T08:03:55.136Z,-62
2023-01-12T08:04:42.522Z,-63
2023-01-12T08:05:29.991Z,-60
2023-01-12T08:06:17.316Z,-60
2023-01-12T08:07:04.641Z,-60
2023-01-12T08:07:51.953Z,-60
2023-01-12T08:08:39.284Z,-60
2023-01-12T08:09:26.599Z,-61
2023-01-12T08:10:13.913Z,-60
2023-01-12T08:11:01.496Z,-60
2023-01-12T08:11:48.832Z,-60
2023-01-12T08:12:36.158Z,-60
2023-01-12T08:13:23.619Z,-60
2023-01-12T08:14:10.956Z,-58
2023-01-12T08:14:58.277Z,-59
2023-01-12T08:15:45.595Z,-58
2023-01-12T08:16:32.950Z,-58
2023-01-12T08:17:20.257Z,-58
2023-01-12T08:18:07.587Z,-60
2023-01-12T08:18:54.879Z,-59
2023-01-12T08:19:42.182Z,-59
2023-01-12T08:20:29.504Z,-60
2023-01-12T08:21:16.811Z,-59
2023-01-12T08:22:04.136Z,-59
2023-01-12T08:22:51.459Z,-58
2023-01-12T08:23:40.990Z,-58
2023-01-12T08:24:29.061Z,-60
2023-01-12T08:25:16.505Z,-60
2023-01-12T08:26:04.614Z,-60
2023-01-12T08:26:51.928Z,-60
2023-01-12T08:27:39.247Z,-60
2023-01-12T08:28:26.664Z,-60
2023-01-12T08:29:13.976Z,-60
2023-01-12T08:30:01.298Z,-62
2023-01-12T08:30:48.716Z,-59
2023-01-12T08:31:36.090Z,-60
2023-01-12T08:32:23.409Z,-59
2023-01-12T08:33:10.801Z,-59
2023-01-12T08:33:58.124Z,-60
2023-01-12T08:34:45.469Z,-60
2023-01-12T08:35:32.844Z,-60
2023-01-12T08:36:20.193Z,-61
2023-01-12T08:37:07.542Z,-60
2023-01-12T08:37:54.947Z,-59
2023-01-12T08:38:42.287Z,-58
2023-01-12T08:39:29.710Z,-60
2023-01-12T08:40:17.032Z,-60
2023-01-12T08:41:04.457Z,-59
2023-01-12T08:41:51.818Z,-59
2023-01-12T08:42:39.163Z,-60
2023-01-12T08:43:26.484Z,-59
2023-01-12T08:44:13.837Z,-61
2023-01-12T08:45:01.217Z,-60
2023-01-12T08:45:48.529Z,-61
2023-01-12T08:46:35.979Z,-59
2023-01-12T08:47:23.332Z,-59
2023-01-12T08:48:10.656Z,-59
2023-01-12T08:48:57.997Z,-61
2023-01-12T08:49:45.380Z,-59
2023-01-12T08:50:32.716Z,-58
2023-01-12T08:51:20.035Z,-60
2023-01-12T08:52:07.463Z,-59
2023-01-12T08:52:54.943Z,-61
2023-01-12T08:53:42.272Z,-60
2023-01-12T08:54:29.709Z,-60
2023-01-12T08:55:17.249Z,-60
2023-01-12T08:56:04.574Z,-59
2023-01-12T08:56:51.964Z,-62
2023-01-12T08:57:39.314Z,-61
2023-01-12T08:58:26.663Z,-59
2023-01-12T08:59:14.139Z,-59
2023-01-12T09:00:01.482Z,-61
2023-01-12T09:00:48.831Z,-60
2023-01-12T09:01:36.389Z,-61
2023-01-12T09:02:23.984Z,-62
2023-01-12T09:03:11.369Z,-61
2023-01-12T09:03:58.698Z,-61
2023-01-12T09:04:46.062Z,-62
2023-01-12T09:05:33.412Z,-61
2023-01-12T09:06:20.852Z,-62
2023-01-12T09:07:08.173Z,-64
2023-01-12T09:07:55.508Z,-62
2023-01-12T09:08:42.875Z,-62
2023-01-12T09:09:30.219Z,-61
2023-01-12T09:10:17.534Z,-61
2023-01-12T09:11:04.879Z,-62
2023-01-12T09:11:52.235Z,-59
2023-01-12T09:12:39.559Z,-58
2023-01-12T09:13:26.881Z,-60
2023-01-12T09:14:14.229Z,-59
2023-01-12T09:15:01.589Z,-59
2023-01-12T09:16:01.388Z,-61
2023-01-12T09:16:46.360Z,-58
2023-01-12T09:17:33.702Z,-60
2023-01-12T09:18:21.048Z,-60
2023-01-12T09:19:08.360Z,-60
2023-01-12T09:19:55.778Z,-60
2023-01-12T09:20:43.087Z,-59
2023-01-12T09:21:30.472Z,-61
2023-01-12T09:22:17.837Z,-59
2023-01-12T09:23:05.463Z,-58
2023-01-12T09:23:52.971Z,-59
2023-01-12T09:24:40.296Z,-59
2023-01-12T09:25:27.608Z,-60
2023-01-12T09:26:14.946Z,-59
2023-01-12T09:27:02.365Z,-61
2023-01-12T09:27:49.685Z,-59
2023-01-12T09:28:37.002Z,-60
2023-01-12T09:29:24.483Z,-61
2023-01-12T09:30:11.793Z,-62
2023-01-12T09:30:59.364Z,-60
2023-01-12T09:31:46.788Z,-60
2023-01-12T09:32:37.154Z,-59
2023-01-12T09:33:24.638Z,-60
2023-01-12T09:34:11.965Z,-59
2023-01-12T09:34:59.302Z,-62
2023-01-12T09:35:47.149Z,-63
2023-01-12T09:36:34.711Z,-60
2023-01-12T09:37:22.100Z,-59
2023-01-12T09:38:09.415Z,-60
2023-01-12T09:38:56.714Z,-58
2023-01-12T09:39:44.035Z,-59
2023-01-12T09:40:31.395Z,-59
2023-01-12T09:41:18.745Z,-60
2023-01-12T09:42:06.060Z,-60
2023-01-12T09:42:53.438Z,-59
2023-01-12T09:43:40.743Z,-59
2023-01-12T09:44:28.097Z,-60
2023-01-12T09:45:15.410Z,-59
2023-01-12T09:46:02.764Z,-59
2023-01-12T09:46:50.136Z,-59
2023-01-12T09:47:37.462Z,-58
2023-01-12T09:48:24.770Z,-62
2023-01-12T09:49:12.221Z,-63
2023-01-12T09:50:08.701Z,-63
2023-01-12T09:50:56.854Z,-63
2023-01-12T09:51:44.411Z,-62
2023-01-12T09:52:31.769Z,-64
2023-01-12T09:53:19.101Z,-60
2023-01-12T09:54:06.520Z,-61
2023-01-12T09:54:53.837Z,-62
2023-01-12T09:55:42.203Z,-60
2023-01-12T09:56:29.521Z,-60
2023-01-12T09:57:28.317Z,-60
2023-01-12T09:58:14.284Z,-60
2023-01-12T09:59:01.637Z,-60
2023-01-12T09:59:48.953Z,-59
2023-01-12T10:00:36.255Z,-60
2023-01-12T10:01:29.776Z,-60
2023-01-12T10:02:17.575Z,-59
2023-01-12T10:03:06.082Z,-64
2023-01-12T10:03:53.462Z,-60
2023-01-12T10:04:41.017Z,-61
2023-01-12T10:05:38.537Z,-60
2023-01-12T10:06:25.648Z,-59
2023-01-12T10:07:13.046Z,-61
2023-01-12T10:08:00.460Z,-61
2023-01-12T10:08:47.774Z,-62
2023-01-12T10:09:35.160Z,-60
2023-01-12T10:10:22.537Z,-62
2023-01-12T10:11:09.867Z,-62
2023-01-12T10:11:57.243Z,-61
2023-01-12T10:12:44.599Z,-63
2023-01-12T10:13:31.916Z,-60
2023-01-12T10:14:19.366Z,-61
2023-01-12T10:15:06.707Z,-62
2023-01-12T10:15:54.159Z,-62
2023-01-12T10:16:41.520Z,-60
2023-01-12T10:17:30.045Z,-60
2023-01-12T10:18:17.438Z,-60
2023-01-12T10:19:05.172Z,-61
2023-01-12T10:19:52.968Z,-61
2023-01-12T10:20:40.305Z,-60
2023-01-12T10:21:27.622Z,-60
2023-01-12T10:22:15.078Z,-61
2023-01-12T10:23:02.444Z,-63
2023-01-12T10:23:49.773Z,-60
2023-01-12T10:24:37.199Z,-61
2023-01-12T10:25:24.527Z,-61
2023-01-12T10:26:11.857Z,-60
2023-01-12T10:26:59.285Z,-60
2023-01-12T10:27:46.650Z,-60
2023-01-12T10:28:34.148Z,-61
2023-01-12T10:29:21.495Z,-63
2023-01-12T10:30:08.837Z,-61
2023-01-12T10:30:56.623Z,-61
2023-01-12T10:31:44.044Z,-61
2023-01-12T10:32:41.519Z,-60
2023-01-12T10:33:28.881Z,-61
2023-01-12T10:34:16.344Z,-61
2023-01-12T10:35:03.674Z,-61
2023-01-12T10:35:51.003Z,-61
2023-01-12T10:36:38.435Z,-63
2023-01-12T10:37:26.747Z,-61
2023-01-12T10:38:14.054Z,-60
2023-01-12T10:39:01.527Z,-61
2023-01-12T10:39:48.839Z,-62
2023-01-12T10:40:36.235Z,-62
2023-01-12T10:41:23.578Z,-62
2023-01-12T10:42:10.947Z,-62
2023-01-12T10:42:58.650Z,-62
2023-01-12T10:43:46.822Z,-62
2023-01-12T10:44:34.280Z,-60
2023-01-12T10:45:21.652Z,-61
2023-01-12T10:46:09.031Z,-61
2023-01-12T10:46:56.388Z,-61
2023-01-12T10:47:43.705Z,-60
2023-01-12T10:48:31.030Z,-59
2023-01-12T10:49:18.911Z,-63
2023-01-12T10:50:06.503Z,-64
2023-01-12T10:50:53.826Z,-59
2023-01-12T10:51:41.138Z,-61
2023-01-12T10:52:28.576Z,-60
2023-01-12T10:53:15.953Z,-59
2023-01-12T10:54:03.276Z,-59
2023-01-12T10:54:50.702Z,-62
2023-01-12T10:55:38.035Z,-61
2023-01-12T10:56:25.353Z,-62
2023-01-12T10:57:13.586Z,-59
2023-01-12T10:58:00.905Z,-59
2023-01-12T10:58:48.264Z,-60
2023-01-12T10:59:35.622Z,-60
2023-01-12T11:00:25.279Z,-62
2023-01-12T11:01:13.469Z,-61
2023-01-12T11:02:01.037Z,-62
2023-01-12T11:02:48.472Z,-62
2023-01-12T11:03:35.826Z,-61
2023-01-12T11:04:23.218Z,-62
2023-01-12T11:05:10.584Z,-60
2023-01-12T11:05:57.895Z,-60
2023-01-12T11:06:45.554Z,-59
2023-01-12T11:07:33.180Z,-59
2023-01-12T11:08:21.027Z,-60
2023-01-12T11:09:08.357Z,-61
2023-01-12T11:09:55.985Z,-60
2023-01-12T11:10:43.384Z,-61
2023-01-12T11:11:30.724Z,-61
2023-01-12T11:12:18.061Z,-61
2023-01-12T11:13:05.933Z,-61
2023-01-12T11:13:53.268Z,-61
2023-01-12T11:14:40.712Z,-59
2023-01-12T11:15:28.023Z,-59
2023-01-12T11:16:15.376Z,-58
2023-01-12T11:17:02.796Z,-60
2023-01-12T11:17:50.338Z,-60
2023-01-12T11:18:37.672Z,-59
2023-01-12T11:19:25.230Z,-58
2023-01-12T11:20:12.548Z,-59
2023-01-12T11:20:59.883Z,-60
2023-01-12T11:21:47.309Z,-60
2023-01-12T11:22:34.639Z,-61
2023-01-12T11:23:21.967Z,-60
2023-01-12T11:24:09.370Z,-59
2023-01-12T11:24:56.888Z,-60
2023-01-12T11:25:44.211Z,-60
2023-01-12T11:26:31.590Z,-60
2023-01-12T11:27:18.895Z,-60
2023-01-12T11:28:06.373Z,-60
2023-01-12T11:28:53.801Z,-61
2023-01-12T11:29:41.118Z,-60
2023-01-12T11:30:28.484Z,-61
2023-01-12T11:31:16.053Z,-59
2023-01-12T11:32:03.371Z,-60
2023-01-12T11:32:50.677Z,-59
2023-01-12T11:33:38.072Z,-60
2023-01-12T11:34:25.591Z,-60
2023-01-12T11:35:13.272Z,-58
2023-01-12T11:36:00.565Z,-59
2023-01-12T11:36:48.014Z,-59
2023-01-12T11:37:35.386Z,-58
2023-01-12T11:38:22.738Z,-61
2023-01-12T11:39:10.097Z,-60
2023-01-12T11:39:57.447Z,-60
2023-01-12T11:40:44.853Z,-62
2023-01-12T11:41:32.169Z,-61
2023-01-12T11:42:19.511Z,-61
2023-01-12T11:43:07.009Z,-61
2023-01-12T11:43:54.324Z,-61
2023-01-12T11:44:41.661Z,-61
2023-01-12T11:45:29.115Z,-61
2023-01-12T11:46:16.500Z,-61
2023-01-12T11:47:03.837Z,-61
2023-01-12T11:47:51.234Z,-61
2023-01-12T11:48:38.554Z,-61
2023-01-12T11:49:25.879Z,-61
2023-01-12T11:50:13.285Z,-60
2023-01-12T11:51:00.627Z,-61
2023-01-12T11:51:47.968Z,-61
2023-01-12T11:52:35.483Z,-62
2023-01-12T11:53:22.891Z,-61
2023-01-12T11:54:10.233Z,-59
2023-01-12T11:54:57.683Z,-61
2023-01-12T11:55:44.999Z,-60
2023-01-12T11:56:32.610Z,-60
2023-01-12T11:57:20.003Z,-60
2023-01-12T11:58:11.276Z,-58
2023-01-12T11:58:58.676Z,-62
2023-01-12T11:59:46.117Z,-60
2023-01-12T12:00:33.478Z,-60
2023-01-12T12:01:20.828Z,-61
2023-01-12T12:02:08.273Z,-60
2023-01-12T12:02:55.809Z,-59
2023-01-12T12:03:43.181Z,-60
2023-01-12T12:04:30.576Z,-61
2023-01-12T12:05:17.901Z,-62
2023-01-12T12:06:05.560Z,-63
2023-01-12T12:06:52.886Z,-63
2023-01-12T12:07:40.208Z,-62
2023-01-12T12:08:27.624Z,-62
2023-01-12T12:09:14.940Z,-63
2023-01-12T12:10:02.258Z,-61
2023-01-12T12:10:49.576Z,-61
2023-01-12T12:11:36.991Z,-62
2023-01-12T12:12:24.338Z,-61
2023-01-12T12:13:11.804Z,-64
2023-01-12T12:13:59.217Z,-61
2023-01-12T12:14:46.758Z,-61
2023-01-12T12:15:34.132Z,-62
2023-01-12T12:16:21.552Z,-61
2023-01-12T12:17:08.879Z,-61
2023-01-12T12:17:56.522Z,-61
2023-01-12T12:18:43.845Z,-61
2023-01-12T12:19:31.143Z,-60
2023-01-12T12:20:18.515Z,-62
2023-01-12T12:21:05.919Z,-62
2023-01-12T12:21:53.254Z,-61
2023-01-12T12:22:40.574Z,-62
2023-01-12T12:23:28.024Z,-60
2023-01-12T12:24:15.507Z,-60
2023-01-12T12:25:02.829Z,-60
2023-01-12T12:25:50.294Z,-59
2023-01-12T12:26:37.616Z,-60
2023-01-12T12:27:24.926Z,-59
2023-01-12T12:28:12.398Z,-59
2023-01-12T12:28:59.701Z,-61
2023-01-12T12:29:47.154Z,-62
2023-01-12T12:30:34.470Z,-61
2023-01-12T12:31:21.830Z,-59
2023-01-12T12:32:09.159Z,-58
2023-01-12T12:32:56.814Z,-60
2023-01-12T12:33:44.167Z,-61
2023-01-12T12:34:31.506Z,-60
2023-01-12T12:35:18.920Z,-62
2023-01-12T12:36:06.501Z,-60
2023-01-12T12:36:53.826Z,-62
2023-01-12T12:37:41.319Z,-62
2023-01-12T12:38:28.660Z,-62
2023-01-12T12:39:16.083Z,-61
2023-01-12T12:40:03.457Z,-60
2023-01-12T12:40:50.772Z,-61
2023-01-12T12:41:39.737Z,-60
2023-01-12T12:42:28.659Z,-61
2023-01-12T12:43:16.582Z,-61
2023-01-12T12:44:04.048Z,-61
2023-01-12T12:44:51.363Z,-60
2023-01-12T12:45:38.704Z,-61
2023-01-12T12:46:26.136Z,-63
2023-01-12T12:47:13.538Z,-61
2023-01-12T12:48:00.934Z,-61
2023-01-12T12:48:48.288Z,-65
2023-01-12T12:49:35.603Z,-60
2023-01-12T12:50:22.939Z,-61
2023-01-12T12:51:10.323Z,-61
2023-01-12T12:51:57.615Z,-60
2023-01-12T12:52:44.917Z,-60
2023-01-12T12:53:32.369Z,-61
2023-01-12T12:54:19.716Z,-62
2023-01-12T12:55:07.260Z,-61
2023-01-12T12:55:54.697Z,-62
2023-01-12T12:56:42.184Z,-63
2023-01-12T12:57:29.515Z,-61
2023-01-12T12:58:16.837Z,-60
2023-01-12T12:59:04.153Z,-61
2023-01-12T12:59:52.157Z,-60
2023-01-12T13:00:39.699Z,-60
2023-01-12T13:01:27.295Z,-61
2023-01-12T13:02:14.793Z,-59
2023-01-12T13:03:02.234Z,-60
2023-01-12T13:03:49.615Z,-58
2023-01-12T13:04:37.010Z,-61
2023-01-12T13:05:24.330Z,-60
2023-01-12T13:06:11.642Z,-61
2023-01-12T13:06:59.065Z,-61
2023-01-12T13:07:46.402Z,-61
2023-01-12T13:08:33.733Z,-60
2023-01-12T13:09:21.059Z,-60
2023-01-12T13:10:08.380Z,-60
2023-01-12T13:10:55.727Z,-62
2023-01-12T13:11:43.264Z,-61
2023-01-12T13:12:30.636Z,-60
2023-01-12T13:13:17.942Z,-62
2023-01-12T13:14:05.270Z,-61
2023-01-12T13:14:52.579Z,-60
2023-01-12T13:15:39.937Z,-61
2023-01-12T13:16:27.282Z,-60
2023-01-12T13:17:14.599Z,-59
2023-01-12T13:18:01.916Z,-59
2023-01-12T13:18:49.266Z,-60
2023-01-12T13:19:36.717Z,-63
2023-01-12T13:20:26.140Z,-60
2023-01-12T13:21:13.681Z,-61
2023-01-12T13:22:01.007Z,-62
2023-01-12T13:22:48.333Z,-63
2023-01-12T13:23:35.652Z,-63
2023-01-12T13:24:23.123Z,-62
2023-01-12T13:25:10.459Z,-60
2023-01-12T13:25:57.897Z,-62
2023-01-12T13:26:45.293Z,-59
2023-01-12T13:27:32.597Z,-60
2023-01-12T13:28:19.929Z,-60
2023-01-12T13:29:07.311Z,-60
2023-01-12T13:29:54.641Z,-60
2023-01-12T13:30:41.974Z,-60
2023-01-12T13:31:29.398Z,-60
2023-01-12T13:32:16.768Z,-62
2023-01-12T13:33:04.063Z,-63
2023-01-12T13:33:51.595Z,-62
2023-01-12T13:34:38.935Z,-62
2023-01-12T13:35:26.253Z,-62
2023-01-12T13:36:13.645Z,-63
2023-01-12T13:37:00.965Z,-63
2023-01-12T13:37:48.289Z,-63
2023-01-12T13:38:35.731Z,-64
2023-01-12T13:39:23.156Z,-63
2023-01-12T13:40:10.523Z,-61
2023-01-12T13:40:58.385Z,-64
2023-01-12T13:41:46.073Z,-62
2023-01-12T13:42:33.386Z,-63
2023-01-12T13:43:20.697Z,-62
2023-01-12T13:44:08.130Z,-62
2023-01-12T13:44:55.438Z,-63
2023-01-12T13:45:42.904Z,-62
2023-01-12T13:46:30.287Z,-63
2023-01-12T13:47:17.661Z,-61
2023-01-12T13:48:04.970Z,-62
2023-01-12T13:48:52.405Z,-68
2023-01-12T13:49:39.728Z,-64
2023-01-12T13:50:27.056Z,-61
2023-01-12T13:51:14.493Z,-63
2023-01-12T13:52:01.847Z,-60
2023-01-12T13:52:49.164Z,-63
2023-01-12T13:53:36.637Z,-64
2023-01-12T13:54:23.953Z,-62
2023-01-12T13:55:11.284Z,-62
2023-01-12T13:55:58.708Z,-63
2023-01-12T13:56:46.025Z,-62
2023-01-12T13:57:33.350Z,-62
2023-01-12T13:58:20.766Z,-62
2023-01-12T13:59:08.119Z,-61
2023-01-12T13:59:55.438Z,-60
2023-01-12T14:00:42.863Z,-63
2023-01-12T14:01:30.280Z,-63
2023-01-12T14:02:17.780Z,-64
2023-01-12T14:03:05.208Z,-64
2023-01-12T14:03:52.531Z,-66
2023-01-12T14:04:39.830Z,-64
2023-01-12T14:05:27.273Z,-65
2023-01-12T14:06:14.586Z,-65
2023-01-12T14:07:01.889Z,-65
2023-01-12T14:07:49.288Z,-65
2023-01-12T14:08:46.317Z,-67
2023-01-12T14:09:33.948Z,-64
2023-01-12T14:10:21.355Z,-64
2023-01-12T14:11:08.676Z,-66
2023-01-12T14:11:56.002Z,-64
2023-01-12T14:12:43.452Z,-63
2023-01-12T14:13:30.844Z,-63
2023-01-12T14:14:18.197Z,-64
2023-01-12T14:15:05.590Z,-64
2023-01-12T14:15:52.909Z,-65
2023-01-12T14:16:40.292Z,-64
2023-01-12T14:17:27.714Z,-64
2023-01-12T14:18:15.044Z,-63
2023-01-12T14:19:02.396Z,-62
2023-01-12T14:19:49.793Z,-62
2023-01-12T14:20:37.095Z,-63
2023-01-12T14:21:24.464Z,-65
2023-01-12T14:22:11.871Z,-62
2023-01-12T14:22:59.200Z,-62
2023-01-12T14:23:46.513Z,-61
2023-01-12T14:24:33.962Z,-61
2023-01-12T14:25:21.311Z,-60
2023-01-12T14:26:08.624Z,-59
2023-01-12T14:26:56.052Z,-59
2023-01-12T14:27:43.379Z,-61
2023-01-12T14:28:30.699Z,-60
2023-01-12T14:29:18.159Z,-59
2023-01-12T14:30:05.534Z,-61
2023-01-12T14:30:52.853Z,-61
2023-01-12T14:31:40.339Z,-61
2023-01-12T14:32:27.709Z,-59
2023-01-12T14:33:15.032Z,-62
2023-01-12T14:34:02.529Z,-63
2023-01-12T14:34:49.864Z,-60
2023-01-12T14:35:37.210Z,-59
2023-01-12T14:36:24.621Z,-62
2023-01-12T14:37:11.975Z,-60
2023-01-12T14:37:59.303Z,-62
2023-01-12T14:38:46.720Z,-64
2023-01-12T14:39:34.075Z,-62
2023-01-12T14:40:21.404Z,-62
2023-01-12T14:41:08.841Z,-60
2023-01-12T14:41:56.154Z,-60
2023-01-12T14:42:43.473Z,-60
2023-01-12T14:43:30.894Z,-60
2023-01-12T14:44:18.216Z,-60
2023-01-12T14:45:05.547Z,-59
2023-01-12T14:45:52.949Z,-62
2023-01-12T14:46:40.334Z,-62
2023-01-12T14:47:27.756Z,-61
2023-01-12T14:48:15.110Z,-60
2023-01-12T14:49:02.438Z,-63
2023-01-12T14:49:49.740Z,-61
2023-01-12T14:50:37.198Z,-64
2023-01-12T14:51:24.508Z,-59
2023-01-12T14:52:11.833Z,-63
2023-01-12T14:52:59.216Z,-61
2023-01-12T14:53:46.628Z,-62
2023-01-12T14:54:33.986Z,-60
2023-01-12T14:55:21.537Z,-62
2023-01-12T14:56:08.881Z,-60
2023-01-12T14:56:56.203Z,-61
2023-01-12T14:57:43.644Z,-60
2023-01-12T14:58:30.972Z,-60
2023-01-12T14:59:18.308Z,-62
2023-01-12T15:00:05.734Z,-61
2023-01-12T15:00:53.198Z,-62
2023-01-12T15:01:40.645Z,-62
2023-01-12T15:02:28.075Z,-60
2023-01-12T15:03:15.380Z,-62
2023-01-12T15:04:02.783Z,-63
2023-01-12T15:04:50.225Z,-64
2023-01-12T15:05:37.873Z,-63
2023-01-12T15:06:25.189Z,-64
2023-01-12T15:07:12.596Z,-62
2023-01-12T15:07:59.928Z,-62
2023-01-12T15:08:47.255Z,-65
2023-01-12T15:09:34.667Z,-63
2023-01-12T15:10:21.972Z,-65
2023-01-12T15:11:09.315Z,-63
2023-01-12T15:11:56.728Z,-64
2023-01-12T15:12:44.200Z,-63
2023-01-12T15:13:31.530Z,-63
2023-01-12T15:14:18.927Z,-62
2023-01-12T15:15:06.260Z,-64
2023-01-12T15:15:53.596Z,-63
2023-01-12T15:16:41.021Z,-66
2023-01-12T15:17:28.336Z,-65
2023-01-12T15:18:15.779Z,-64
2023-01-12T15:19:03.113Z,-65
2023-01-12T15:19:50.417Z,-65
2023-01-12T15:20:37.810Z,-66
2023-01-12T15:21:25.198Z,-65
2023-01-12T15:22:12.551Z,-64
2023-01-12T15:22:59.876Z,-64
2023-01-12T15:23:47.314Z,-65
2023-01-12T15:24:34.671Z,-65
2023-01-12T15:25:22.106Z,-65
2023-01-12T15:26:09.460Z,-64
2023-01-12T15:27:06.016Z,-64
2023-01-12T15:27:54.063Z,-64
2023-01-12T15:28:41.485Z,-63
2023-01-12T15:29:28.805Z,-64
2023-01-12T15:30:16.129Z,-64
2023-01-12T15:31:03.507Z,-64